sensor_id;sensor_type;location;lat;lon;timestamp;P1;durP1;ratioP1;P2;durP2;ratioP2
22287;SDS011;11312;51.464;6.968;2022-07-23T00:00:58;3.55;;;2.00;;
22287;SDS011;11312;51.464;6.968;2022-07-23T00:03:24;0.80;;;0.80;;
22287;SDS011;11312;51.464;6.968;2022-07-23T00:05:50;0.85;;;0.85;;
22287;SDS011;11312;51.464;6.968;2022-07-23T00:08:16;2.42;;;1.25;;
22287;SDS011;11312;51.464;6.968;2022-07-23T00:10:41;2.28;;;1.20;;
22287;SDS011;11312;51.464;6.968;2022-07-23T00:13:07;11.13;;;1.60;;
22287;SDS011;11312;51.464;6.968;2022-07-23T00:15:33;2.10;;;1.30;;
22287;SDS011;11312;51.464;6.968;2022-07-23T00:17:59;2.45;;;1.40;;
22287;SDS011;11312;51.464;6.968;2022-07-23T00:20:24;1.30;;;1.02;;
22287;SDS011;11312;51.464;6.968;2022-07-23T00:22:51;3.85;;;1.30;;
22287;SDS011;11312;51.464;6.968;2022-07-23T00:25:18;0.90;;;0.90;;
22287;SDS011;11312;51.464;6.968;2022-07-23T00:27:45;1.83;;;1.10;;
22287;SDS011;11312;51.464;6.968;2022-07-23T00:30:11;1.73;;;1.17;;
22287;SDS011;11312;51.464;6.968;2022-07-23T00:32:47;0.90;;;0.90;;
22287;SDS011;11312;51.464;6.968;2022-07-23T00:35:22;1.10;;;1.00;;
22287;SDS011;11312;51.464;6.968;2022-07-23T00:37:49;1.30;;;1.20;;
22287;SDS011;11312;51.464;6.968;2022-07-23T00:40:15;1.33;;;1.08;;
22287;SDS011;11312;51.464;6.968;2022-07-23T00:42:41;1.70;;;1.10;;
22287;SDS011;11312;51.464;6.968;2022-07-23T00:45:07;1.00;;;0.95;;
22287;SDS011;11312;51.464;6.968;2022-07-23T00:47:33;3.17;;;1.30;;
22287;SDS011;11312;51.464;6.968;2022-07-23T00:49:59;1.05;;;1.00;;
22287;SDS011;11312;51.464;6.968;2022-07-23T00:52:25;2.70;;;1.38;;
22287;SDS011;11312;51.464;6.968;2022-07-23T00:54:51;3.05;;;1.52;;
22287;SDS011;11312;51.464;6.968;2022-07-23T00:57:16;3.20;;;1.80;;
22287;SDS011;11312;51.464;6.968;2022-07-23T00:59:43;2.33;;;1.20;;
22287;SDS011;11312;51.464;6.968;2022-07-23T01:02:09;1.77;;;1.17;;
22287;SDS011;11312;51.464;6.968;2022-07-23T01:04:35;1.55;;;1.00;;
22287;SDS011;11312;51.464;6.968;2022-07-23T01:07:01;3.63;;;1.52;;
22287;SDS011;11312;51.464;6.968;2022-07-23T01:09:26;1.83;;;1.23;;
22287;SDS011;11312;51.464;6.968;2022-07-23T01:11:53;1.35;;;1.02;;
22287;SDS011;11312;51.464;6.968;2022-07-23T01:14:20;2.33;;;1.30;;
22287;SDS011;11312;51.464;6.968;2022-07-23T01:16:47;2.30;;;1.60;;
22287;SDS011;11312;51.464;6.968;2022-07-23T01:19:14;2.70;;;1.42;;
22287;SDS011;11312;51.464;6.968;2022-07-23T01:21:41;1.40;;;1.00;;
22287;SDS011;11312;51.464;6.968;2022-07-23T01:24:09;2.83;;;1.33;;
22287;SDS011;11312;51.464;6.968;2022-07-23T01:26:36;2.30;;;1.20;;
22287;SDS011;11312;51.464;6.968;2022-07-23T01:29:03;4.88;;;1.80;;
22287;SDS011;11312;51.464;6.968;2022-07-23T01:31:29;2.40;;;1.35;;
22287;SDS011;11312;51.464;6.968;2022-07-23T01:33:55;1.25;;;1.08;;
22287;SDS011;11312;51.464;6.968;2022-07-23T01:36:21;1.23;;;1.10;;
22287;SDS011;11312;51.464;6.968;2022-07-23T01:38:47;2.83;;;1.48;;
22287;SDS011;11312;51.464;6.968;2022-07-23T01:41:12;0.95;;;0.93;;
22287;SDS011;11312;51.464;6.968;2022-07-23T01:43:38;3.72;;;1.27;;
22287;SDS011;11312;51.464;6.968;2022-07-23T01:46:04;1.35;;;1.13;;
22287;SDS011;11312;51.464;6.968;2022-07-23T01:48:29;2.45;;;1.33;;
22287;SDS011;11312;51.464;6.968;2022-07-23T01:50:55;2.65;;;1.17;;
22287;SDS011;11312;51.464;6.968;2022-07-23T01:53:21;3.30;;;1.50;;
22287;SDS011;11312;51.464;6.968;2022-07-23T01:55:46;3.80;;;1.60;;
22287;SDS011;11312;51.464;6.968;2022-07-23T01:58:12;1.67;;;1.05;;
22287;SDS011;11312;51.464;6.968;2022-07-23T02:00:37;1.27;;;1.13;;
22287;SDS011;11312;51.464;6.968;2022-07-23T02:03:03;0.93;;;0.90;;
22287;SDS011;11312;51.464;6.968;2022-07-23T02:05:29;1.42;;;1.10;;
22287;SDS011;11312;51.464;6.968;2022-07-23T02:07:55;1.83;;;1.20;;
22287;SDS011;11312;51.464;6.968;2022-07-23T02:10:21;2.97;;;1.20;;
22287;SDS011;11312;51.464;6.968;2022-07-23T02:12:47;2.17;;;1.20;;
22287;SDS011;11312;51.464;6.968;2022-07-23T02:15:12;3.75;;;1.55;;
22287;SDS011;11312;51.464;6.968;2022-07-23T02:17:38;3.42;;;1.65;;
22287;SDS011;11312;51.464;6.968;2022-07-23T02:20:06;1.55;;;1.10;;
22287;SDS011;11312;51.464;6.968;2022-07-23T02:22:32;2.90;;;1.30;;
22287;SDS011;11312;51.464;6.968;2022-07-23T02:24:59;1.80;;;1.10;;
22287;SDS011;11312;51.464;6.968;2022-07-23T02:27:24;2.35;;;1.40;;
22287;SDS011;11312;51.464;6.968;2022-07-23T02:29:50;1.85;;;1.10;;
22287;SDS011;11312;51.464;6.968;2022-07-23T02:32:15;2.22;;;1.23;;
22287;SDS011;11312;51.464;6.968;2022-07-23T02:34:41;1.63;;;1.13;;
22287;SDS011;11312;51.464;6.968;2022-07-23T02:37:07;2.53;;;1.27;;
22287;SDS011;11312;51.464;6.968;2022-07-23T02:39:34;2.33;;;1.30;;
22287;SDS011;11312;51.464;6.968;2022-07-23T02:42:01;2.72;;;1.55;;
22287;SDS011;11312;51.464;6.968;2022-07-23T02:44:27;1.25;;;0.95;;
22287;SDS011;11312;51.464;6.968;2022-07-23T02:46:52;3.22;;;1.80;;
22287;SDS011;11312;51.464;6.968;2022-07-23T02:49:18;3.88;;;1.52;;
22287;SDS011;11312;51.464;6.968;2022-07-23T02:51:44;2.42;;;1.38;;
22287;SDS011;11312;51.464;6.968;2022-07-23T02:54:09;2.90;;;1.38;;
22287;SDS011;11312;51.464;6.968;2022-07-23T02:56:35;2.35;;;1.30;;
22287;SDS011;11312;51.464;6.968;2022-07-23T02:59:00;1.88;;;1.30;;
22287;SDS011;11312;51.464;6.968;2022-07-23T03:01:26;1.80;;;1.10;;
22287;SDS011;11312;51.464;6.968;2022-07-23T03:03:52;2.22;;;1.52;;
22287;SDS011;11312;51.464;6.968;2022-07-23T03:06:17;5.10;;;1.85;;
22287;SDS011;11312;51.464;6.968;2022-07-23T03:08:43;4.35;;;1.95;;
22287;SDS011;11312;51.464;6.968;2022-07-23T03:11:08;1.88;;;1.10;;
22287;SDS011;11312;51.464;6.968;2022-07-23T03:13:36;13.02;;;2.45;;
22287;SDS011;11312;51.464;6.968;2022-07-23T03:16:03;2.58;;;1.30;;
22287;SDS011;11312;51.464;6.968;2022-07-23T03:18:29;2.70;;;1.48;;
22287;SDS011;11312;51.464;6.968;2022-07-23T03:20:54;4.13;;;1.65;;
22287;SDS011;11312;51.464;6.968;2022-07-23T03:23:20;3.00;;;1.40;;
22287;SDS011;11312;51.464;6.968;2022-07-23T03:25:46;1.70;;;1.17;;
22287;SDS011;11312;51.464;6.968;2022-07-23T03:28:13;1.70;;;1.17;;
22287;SDS011;11312;51.464;6.968;2022-07-23T03:30:40;2.67;;;1.55;;
22287;SDS011;11312;51.464;6.968;2022-07-23T03:33:16;3.28;;;1.65;;
22287;SDS011;11312;51.464;6.968;2022-07-23T03:35:43;2.63;;;1.38;;
22287;SDS011;11312;51.464;6.968;2022-07-23T03:38:09;4.65;;;1.65;;
22287;SDS011;11312;51.464;6.968;2022-07-23T03:40:34;0.95;;;0.93;;
22287;SDS011;11312;51.464;6.968;2022-07-23T03:43:00;1.98;;;1.35;;
22287;SDS011;11312;51.464;6.968;2022-07-23T03:45:26;1.48;;;1.10;;
22287;SDS011;11312;51.464;6.968;2022-07-23T03:47:52;1.42;;;1.13;;
22287;SDS011;11312;51.464;6.968;2022-07-23T03:50:18;3.13;;;1.40;;
22287;SDS011;11312;51.464;6.968;2022-07-23T03:52:44;2.20;;;1.52;;
22287;SDS011;11312;51.464;6.968;2022-07-23T03:55:10;2.92;;;1.33;;
22287;SDS011;11312;51.464;6.968;2022-07-23T03:57:36;2.72;;;1.52;;
22287;SDS011;11312;51.464;6.968;2022-07-23T04:00:02;1.05;;;1.00;;
22287;SDS011;11312;51.464;6.968;2022-07-23T04:02:29;1.60;;;1.00;;
22287;SDS011;11312;51.464;6.968;2022-07-23T04:04:54;4.18;;;1.90;;
22287;SDS011;11312;51.464;6.968;2022-07-23T04:07:20;4.60;;;1.20;;
22287;SDS011;11312;51.464;6.968;2022-07-23T04:09:46;1.60;;;1.15;;
22287;SDS011;11312;51.464;6.968;2022-07-23T04:12:12;4.00;;;1.50;;
22287;SDS011;11312;51.464;6.968;2022-07-23T04:14:37;3.55;;;1.45;;
22287;SDS011;11312;51.464;6.968;2022-07-23T04:17:03;2.08;;;1.20;;
22287;SDS011;11312;51.464;6.968;2022-07-23T04:19:29;2.67;;;1.25;;
22287;SDS011;11312;51.464;6.968;2022-07-23T04:21:55;4.70;;;2.05;;
22287;SDS011;11312;51.464;6.968;2022-07-23T04:24:21;3.20;;;1.52;;
22287;SDS011;11312;51.464;6.968;2022-07-23T04:26:47;2.42;;;1.25;;
22287;SDS011;11312;51.464;6.968;2022-07-23T04:29:12;3.50;;;1.65;;
22287;SDS011;11312;51.464;6.968;2022-07-23T04:31:38;2.67;;;1.52;;
22287;SDS011;11312;51.464;6.968;2022-07-23T04:34:04;8.02;;;1.70;;
22287;SDS011;11312;51.464;6.968;2022-07-23T04:36:29;2.67;;;1.88;;
22287;SDS011;11312;51.464;6.968;2022-07-23T04:38:55;1.83;;;1.20;;
22287;SDS011;11312;51.464;6.968;2022-07-23T04:41:21;1.58;;;1.10;;
22287;SDS011;11312;51.464;6.968;2022-07-23T04:43:47;1.10;;;1.00;;
22287;SDS011;11312;51.464;6.968;2022-07-23T04:46:12;2.20;;;1.45;;
22287;SDS011;11312;51.464;6.968;2022-07-23T04:48:38;1.70;;;1.20;;
22287;SDS011;11312;51.464;6.968;2022-07-23T04:51:05;4.30;;;1.77;;
22287;SDS011;11312;51.464;6.968;2022-07-23T04:53:30;1.17;;;1.05;;
22287;SDS011;11312;51.464;6.968;2022-07-23T04:55:56;2.67;;;1.45;;
22287;SDS011;11312;51.464;6.968;2022-07-23T04:58:22;2.60;;;1.52;;
22287;SDS011;11312;51.464;6.968;2022-07-23T05:00:48;2.35;;;1.33;;
22287;SDS011;11312;51.464;6.968;2022-07-23T05:03:13;3.13;;;1.45;;
22287;SDS011;11312;51.464;6.968;2022-07-23T05:05:39;2.90;;;1.38;;
22287;SDS011;11312;51.464;6.968;2022-07-23T05:08:05;1.65;;;1.30;;
22287;SDS011;11312;51.464;6.968;2022-07-23T05:10:31;1.88;;;1.20;;
22287;SDS011;11312;51.464;6.968;2022-07-23T05:12:57;1.52;;;1.08;;
22287;SDS011;11312;51.464;6.968;2022-07-23T05:15:22;14.63;;;2.13;;
22287;SDS011;11312;51.464;6.968;2022-07-23T05:17:48;1.60;;;1.17;;
22287;SDS011;11312;51.464;6.968;2022-07-23T05:20:14;3.38;;;1.42;;
22287;SDS011;11312;51.464;6.968;2022-07-23T05:22:40;2.67;;;1.27;;
22287;SDS011;11312;51.464;6.968;2022-07-23T05:25:06;4.00;;;2.13;;
22287;SDS011;11312;51.464;6.968;2022-07-23T05:27:32;1.92;;;1.10;;
22287;SDS011;11312;51.464;6.968;2022-07-23T05:29:58;2.45;;;1.40;;
22287;SDS011;11312;51.464;6.968;2022-07-23T05:32:24;4.47;;;1.90;;
22287;SDS011;11312;51.464;6.968;2022-07-23T05:34:50;3.55;;;1.52;;
22287;SDS011;11312;51.464;6.968;2022-07-23T05:37:15;2.78;;;1.17;;
22287;SDS011;11312;51.464;6.968;2022-07-23T05:39:42;3.67;;;1.63;;
22287;SDS011;11312;51.464;6.968;2022-07-23T05:42:07;2.85;;;1.55;;
22287;SDS011;11312;51.464;6.968;2022-07-23T05:44:33;1.92;;;1.02;;
22287;SDS011;11312;51.464;6.968;2022-07-23T05:46:59;4.00;;;1.80;;
22287;SDS011;11312;51.464;6.968;2022-07-23T05:49:25;3.25;;;1.77;;
22287;SDS011;11312;51.464;6.968;2022-07-23T05:51:51;3.75;;;1.63;;
22287;SDS011;11312;51.464;6.968;2022-07-23T05:54:16;4.35;;;1.65;;
22287;SDS011;11312;51.464;6.968;2022-07-23T05:56:42;3.88;;;1.42;;
22287;SDS011;11312;51.464;6.968;2022-07-23T05:59:08;3.42;;;1.58;;
22287;SDS011;11312;51.464;6.968;2022-07-23T06:01:34;6.03;;;1.50;;
22287;SDS011;11312;51.464;6.968;2022-07-23T06:03:59;17.13;;;2.45;;
22287;SDS011;11312;51.464;6.968;2022-07-23T06:06:25;3.67;;;1.35;;
22287;SDS011;11312;51.464;6.968;2022-07-23T06:08:51;2.78;;;1.50;;
22287;SDS011;11312;51.464;6.968;2022-07-23T06:11:16;7.13;;;1.85;;
22287;SDS011;11312;51.464;6.968;2022-07-23T06:13:42;5.38;;;1.85;;
22287;SDS011;11312;51.464;6.968;2022-07-23T06:16:08;4.60;;;1.70;;
22287;SDS011;11312;51.464;6.968;2022-07-23T06:18:34;3.63;;;1.38;;
22287;SDS011;11312;51.464;6.968;2022-07-23T06:20:59;3.10;;;1.42;;
22287;SDS011;11312;51.464;6.968;2022-07-23T06:23:25;3.17;;;1.40;;
22287;SDS011;11312;51.464;6.968;2022-07-23T06:25:51;2.83;;;2.00;;
22287;SDS011;11312;51.464;6.968;2022-07-23T06:28:17;3.13;;;1.40;;
22287;SDS011;11312;51.464;6.968;2022-07-23T06:30:42;2.97;;;1.38;;
22287;SDS011;11312;51.464;6.968;2022-07-23T06:33:08;2.38;;;1.40;;
22287;SDS011;11312;51.464;6.968;2022-07-23T06:35:34;3.25;;;1.45;;
22287;SDS011;11312;51.464;6.968;2022-07-23T06:38:00;5.03;;;1.73;;
22287;SDS011;11312;51.464;6.968;2022-07-23T06:40:26;3.65;;;1.52;;
22287;SDS011;11312;51.464;6.968;2022-07-23T06:42:51;4.30;;;1.63;;
22287;SDS011;11312;51.464;6.968;2022-07-23T06:45:17;2.97;;;1.35;;
22287;SDS011;11312;51.464;6.968;2022-07-23T06:47:43;4.32;;;1.95;;
22287;SDS011;11312;51.464;6.968;2022-07-23T06:50:09;4.43;;;1.85;;
22287;SDS011;11312;51.464;6.968;2022-07-23T06:52:35;21.05;;;2.42;;
22287;SDS011;11312;51.464;6.968;2022-07-23T06:55:01;1.65;;;1.02;;
22287;SDS011;11312;51.464;6.968;2022-07-23T06:57:28;1.88;;;1.05;;
22287;SDS011;11312;51.464;6.968;2022-07-23T06:59:53;4.88;;;2.25;;
22287;SDS011;11312;51.464;6.968;2022-07-23T07:02:19;1.80;;;1.15;;
22287;SDS011;11312;51.464;6.968;2022-07-23T07:04:45;9.02;;;2.05;;
22287;SDS011;11312;51.464;6.968;2022-07-23T07:07:10;2.83;;;1.30;;
22287;SDS011;11312;51.464;6.968;2022-07-23T07:09:37;5.03;;;1.63;;
22287;SDS011;11312;51.464;6.968;2022-07-23T07:12:03;5.97;;;2.08;;
22287;SDS011;11312;51.464;6.968;2022-07-23T07:14:29;2.53;;;1.20;;
22287;SDS011;11312;51.464;6.968;2022-07-23T07:16:55;5.32;;;2.05;;
22287;SDS011;11312;51.464;6.968;2022-07-23T07:19:20;4.07;;;1.98;;
22287;SDS011;11312;51.464;6.968;2022-07-23T07:21:46;1.13;;;0.77;;
22287;SDS011;11312;51.464;6.968;2022-07-23T07:24:12;2.25;;;1.02;;
22287;SDS011;11312;51.464;6.968;2022-07-23T07:26:37;5.03;;;1.75;;
22287;SDS011;11312;51.464;6.968;2022-07-23T07:29:04;2.72;;;1.35;;
22287;SDS011;11312;51.464;6.968;2022-07-23T07:31:30;7.00;;;2.05;;
22287;SDS011;11312;51.464;6.968;2022-07-23T07:33:56;3.17;;;1.45;;
22287;SDS011;11312;51.464;6.968;2022-07-23T07:36:23;6.13;;;2.00;;
22287;SDS011;11312;51.464;6.968;2022-07-23T07:38:49;3.42;;;1.30;;
22287;SDS011;11312;51.464;6.968;2022-07-23T07:41:14;2.50;;;1.17;;
22287;SDS011;11312;51.464;6.968;2022-07-23T07:43:40;3.28;;;1.25;;
22287;SDS011;11312;51.464;6.968;2022-07-23T07:46:06;8.25;;;2.35;;
22287;SDS011;11312;51.464;6.968;2022-07-23T07:48:35;2.17;;;0.98;;
22287;SDS011;11312;51.464;6.968;2022-07-23T07:51:04;2.80;;;1.13;;
22287;SDS011;11312;51.464;6.968;2022-07-23T07:53:30;0.70;;;0.70;;
22287;SDS011;11312;51.464;6.968;2022-07-23T07:55:56;1.95;;;1.00;;
22287;SDS011;11312;51.464;6.968;2022-07-23T07:58:21;2.05;;;0.90;;
22287;SDS011;11312;51.464;6.968;2022-07-23T08:00:47;2.42;;;1.02;;
22287;SDS011;11312;51.464;6.968;2022-07-23T08:03:13;3.25;;;0.90;;
22287;SDS011;11312;51.464;6.968;2022-07-23T08:05:39;4.10;;;1.67;;
22287;SDS011;11312;51.464;6.968;2022-07-23T08:08:04;3.05;;;1.50;;
22287;SDS011;11312;51.464;6.968;2022-07-23T08:10:30;1.55;;;0.77;;
22287;SDS011;11312;51.464;6.968;2022-07-23T08:12:56;0.80;;;0.60;;
22287;SDS011;11312;51.464;6.968;2022-07-23T08:15:23;1.08;;;0.70;;
22287;SDS011;11312;51.464;6.968;2022-07-23T08:17:51;1.40;;;0.73;;
22287;SDS011;11312;51.464;6.968;2022-07-23T08:20:18;1.75;;;0.82;;
22287;SDS011;11312;51.464;6.968;2022-07-23T08:25:22;8.85;;;1.45;;
22287;SDS011;11312;51.464;6.968;2022-07-23T08:27:50;1.30;;;0.73;;
22287;SDS011;11312;51.464;6.968;2022-07-23T08:30:16;2.85;;;1.55;;
22287;SDS011;11312;51.464;6.968;2022-07-23T08:32:55;2.17;;;0.85;;
22287;SDS011;11312;51.464;6.968;2022-07-23T08:35:30;2.40;;;1.05;;
22287;SDS011;11312;51.464;6.968;2022-07-23T08:37:59;2.13;;;0.90;;
22287;SDS011;11312;51.464;6.968;2022-07-23T08:40:32;1.70;;;0.68;;
22287;SDS011;11312;51.464;6.968;2022-07-23T08:42:59;0.30;;;0.30;;
22287;SDS011;11312;51.464;6.968;2022-07-23T08:45:35;2.13;;;1.00;;
22287;SDS011;11312;51.464;6.968;2022-07-23T08:48:03;2.17;;;1.15;;
22287;SDS011;11312;51.464;6.968;2022-07-23T08:50:32;11.50;;;0.85;;
22287;SDS011;11312;51.464;6.968;2022-07-23T08:52:59;0.40;;;0.30;;
22287;SDS011;11312;51.464;6.968;2022-07-23T08:55:26;2.38;;;1.00;;
22287;SDS011;11312;51.464;6.968;2022-07-23T08:57:52;1.65;;;1.25;;
22287;SDS011;11312;51.464;6.968;2022-07-23T09:00:19;1.50;;;0.57;;
22287;SDS011;11312;51.464;6.968;2022-07-23T09:02:46;0.88;;;0.32;;
22287;SDS011;11312;51.464;6.968;2022-07-23T09:05:12;0.45;;;0.35;;
22287;SDS011;11312;51.464;6.968;2022-07-23T09:08:03;2.30;;;1.00;;
22287;SDS011;11312;51.464;6.968;2022-07-23T09:10:28;1.45;;;0.47;;
22287;SDS011;11312;51.464;6.968;2022-07-23T09:12:54;0.30;;;0.17;;
22287;SDS011;11312;51.464;6.968;2022-07-23T09:15:20;1.40;;;0.55;;
22287;SDS011;11312;51.464;6.968;2022-07-23T09:17:45;0.75;;;0.40;;
22287;SDS011;11312;51.464;6.968;2022-07-23T09:20:15;0.60;;;0.50;;
22287;SDS011;11312;51.464;6.968;2022-07-23T09:22:45;0.85;;;0.60;;
22287;SDS011;11312;51.464;6.968;2022-07-23T09:25:14;1.65;;;0.63;;
22287;SDS011;11312;51.464;6.968;2022-07-23T09:30:23;0.45;;;0.40;;
22287;SDS011;11312;51.464;6.968;2022-07-23T09:38:20;0.20;;;0.20;;
22287;SDS011;11312;51.464;6.968;2022-07-23T09:40:47;0.80;;;0.60;;
22287;SDS011;11312;51.464;6.968;2022-07-23T09:43:33;0.30;;;0.30;;
22287;SDS011;11312;51.464;6.968;2022-07-23T09:48:43;0.30;;;0.30;;
22287;SDS011;11312;51.464;6.968;2022-07-23T09:51:09;1.55;;;0.68;;
22287;SDS011;11312;51.464;6.968;2022-07-23T09:53:34;2.70;;;0.75;;
22287;SDS011;11312;51.464;6.968;2022-07-23T09:56:00;0.30;;;0.30;;
22287;SDS011;11312;51.464;6.968;2022-07-23T09:58:26;0.47;;;0.40;;
22287;SDS011;11312;51.464;6.968;2022-07-23T10:00:53;0.77;;;0.40;;
22287;SDS011;11312;51.464;6.968;2022-07-23T10:03:20;0.73;;;0.40;;
22287;SDS011;11312;51.464;6.968;2022-07-23T10:05:48;1.25;;;0.63;;
22287;SDS011;11312;51.464;6.968;2022-07-23T10:08:15;1.35;;;0.47;;
22287;SDS011;11312;51.464;6.968;2022-07-23T10:10:43;0.30;;;0.30;;
22287;SDS011;11312;51.464;6.968;2022-07-23T10:13:11;0.10;;;0.10;;
22287;SDS011;11312;51.464;6.968;2022-07-23T10:15:46;0.40;;;0.40;;
22287;SDS011;11312;51.464;6.968;2022-07-23T10:18:12;0.65;;;0.40;;
22287;SDS011;11312;51.464;6.968;2022-07-23T10:20:39;0.22;;;0.15;;
22287;SDS011;11312;51.464;6.968;2022-07-23T10:25:58;0.45;;;0.35;;
22287;SDS011;11312;51.464;6.968;2022-07-23T10:36:49;0.47;;;0.32;;
22287;SDS011;11312;51.464;6.968;2022-07-23T10:39:24;0.35;;;0.20;;
22287;SDS011;11312;51.464;6.968;2022-07-23T10:42:07;0.98;;;0.32;;
22287;SDS011;11312;51.464;6.968;2022-07-23T10:44:39;5.50;;;0.93;;
22287;SDS011;11312;51.464;6.968;2022-07-23T10:47:07;1.10;;;0.45;;
22287;SDS011;11312;51.464;6.968;2022-07-23T10:57:59;7.93;;;1.08;;
22287;SDS011;11312;51.464;6.968;2022-07-23T11:00:30;0.10;;;0.10;;
22287;SDS011;11312;51.464;6.968;2022-07-23T11:03:00;0.35;;;0.22;;
22287;SDS011;11312;51.464;6.968;2022-07-23T11:05:42;0.75;;;0.30;;
22287;SDS011;11312;51.464;6.968;2022-07-23T11:08:10;1.65;;;0.35;;
22287;SDS011;11312;51.464;6.968;2022-07-23T11:32:07;0.28;;;0.20;;
22287;SDS011;11312;51.464;6.968;2022-07-23T11:34:43;0.82;;;0.22;;
22287;SDS011;11312;51.464;6.968;2022-07-23T11:37:12;0.75;;;0.22;;
22287;SDS011;11312;51.464;6.968;2022-07-23T11:39:53;0.22;;;0.20;;
22287;SDS011;11312;51.464;6.968;2022-07-23T11:42:20;0.15;;;0.08;;
22287;SDS011;11312;51.464;6.968;2022-07-23T11:44:46;0.20;;;0.08;;
22287;SDS011;11312;51.464;6.968;2022-07-23T11:47:13;1.83;;;0.68;;
22287;SDS011;11312;51.464;6.968;2022-07-23T11:49:38;0.10;;;0.10;;
22287;SDS011;11312;51.464;6.968;2022-07-23T11:52:17;0.00;;;0.00;;
22287;SDS011;11312;51.464;6.968;2022-07-23T11:54:47;1.40;;;0.55;;
22287;SDS011;11312;51.464;6.968;2022-07-23T11:57:26;0.00;;;0.00;;
22287;SDS011;11312;51.464;6.968;2022-07-23T11:59:57;0.28;;;0.20;;
22287;SDS011;11312;51.464;6.968;2022-07-23T12:02:38;0.15;;;0.05;;
22287;SDS011;11312;51.464;6.968;2022-07-23T12:05:08;3.35;;;0.63;;
22287;SDS011;11312;51.464;6.968;2022-07-23T12:07:47;0.28;;;0.28;;
22287;SDS011;11312;51.464;6.968;2022-07-23T12:10:21;0.05;;;0.05;;
22287;SDS011;11312;51.464;6.968;2022-07-23T12:12:50;0.32;;;0.13;;
22287;SDS011;11312;51.464;6.968;2022-07-23T12:15:18;0.50;;;0.20;;
22287;SDS011;11312;51.464;6.968;2022-07-23T12:17:48;0.10;;;0.10;;
22287;SDS011;11312;51.464;6.968;2022-07-23T12:20:16;0.15;;;0.13;;
22287;SDS011;11312;51.464;6.968;2022-07-23T12:22:46;1.65;;;0.63;;
22287;SDS011;11312;51.464;6.968;2022-07-23T12:27:41;0.63;;;0.30;;
22287;SDS011;11312;51.464;6.968;2022-07-23T12:30:17;0.28;;;0.13;;
22287;SDS011;11312;51.464;6.968;2022-07-23T12:32:45;0.00;;;0.00;;
22287;SDS011;11312;51.464;6.968;2022-07-23T12:35:12;0.98;;;0.30;;
22287;SDS011;11312;51.464;6.968;2022-07-23T12:37:40;1.55;;;0.20;;
22287;SDS011;11312;51.464;6.968;2022-07-23T12:40:27;0.32;;;0.30;;
22287;SDS011;11312;51.464;6.968;2022-07-23T12:42:56;0.80;;;0.22;;
22287;SDS011;11312;51.464;6.968;2022-07-23T12:45:24;0.00;;;0.00;;
22287;SDS011;11312;51.464;6.968;2022-07-23T12:47:52;0.00;;;0.00;;
22287;SDS011;11312;51.464;6.968;2022-07-23T12:50:49;0.00;;;0.00;;
22287;SDS011;11312;51.464;6.968;2022-07-23T12:53:20;0.00;;;0.00;;
22287;SDS011;11312;51.464;6.968;2022-07-23T12:55:47;0.00;;;0.00;;
22287;SDS011;11312;51.464;6.968;2022-07-23T12:58:15;0.20;;;0.15;;
22287;SDS011;11312;51.464;6.968;2022-07-23T13:01:15;0.05;;;0.05;;
22287;SDS011;11312;51.464;6.968;2022-07-23T13:06:20;0.30;;;0.10;;
22287;SDS011;11312;51.464;6.968;2022-07-23T13:08:46;0.20;;;0.20;;
22287;SDS011;11312;51.464;6.968;2022-07-23T13:11:12;1.25;;;0.50;;
22287;SDS011;11312;51.464;6.968;2022-07-23T13:13:38;0.80;;;0.30;;
22287;SDS011;11312;51.464;6.968;2022-07-23T13:16:03;0.90;;;0.30;;
22287;SDS011;11312;51.464;6.968;2022-07-23T13:18:29;0.15;;;0.10;;
22287;SDS011;11312;51.464;6.968;2022-07-23T13:20:55;1.77;;;0.70;;
22287;SDS011;11312;51.464;6.968;2022-07-23T13:23:22;1.23;;;0.38;;
22287;SDS011;11312;51.464;6.968;2022-07-23T13:25:47;0.00;;;0.00;;
22287;SDS011;11312;51.464;6.968;2022-07-23T13:28:14;0.47;;;0.20;;
22287;SDS011;11312;51.464;6.968;2022-07-23T13:30:41;0.15;;;0.10;;
22287;SDS011;11312;51.464;6.968;2022-07-23T13:33:08;0.93;;;0.38;;
22287;SDS011;11312;51.464;6.968;2022-07-23T13:35:34;0.10;;;0.10;;
22287;SDS011;11312;51.464;6.968;2022-07-23T13:38:02;0.65;;;0.30;;
22287;SDS011;11312;51.464;6.968;2022-07-23T13:40:28;0.80;;;0.25;;
22287;SDS011;11312;51.464;6.968;2022-07-23T13:42:54;0.93;;;0.60;;
22287;SDS011;11312;51.464;6.968;2022-07-23T13:45:20;0.30;;;0.20;;
22287;SDS011;11312;51.464;6.968;2022-07-23T13:47:46;0.82;;;0.30;;
22287;SDS011;11312;51.464;6.968;2022-07-23T13:50:12;0.20;;;0.20;;
22287;SDS011;11312;51.464;6.968;2022-07-23T13:52:37;0.60;;;0.25;;
22287;SDS011;11312;51.464;6.968;2022-07-23T13:55:04;0.55;;;0.28;;
22287;SDS011;11312;51.464;6.968;2022-07-23T13:57:31;3.33;;;0.68;;
22287;SDS011;11312;51.464;6.968;2022-07-23T13:59:57;1.90;;;0.65;;
22287;SDS011;11312;51.464;6.968;2022-07-23T14:02:23;0.52;;;0.25;;
22287;SDS011;11312;51.464;6.968;2022-07-23T14:04:49;0.20;;;0.20;;
22287;SDS011;11312;51.464;6.968;2022-07-23T14:07:15;0.10;;;0.10;;
22287;SDS011;11312;51.464;6.968;2022-07-23T14:09:42;1.20;;;0.70;;
22287;SDS011;11312;51.464;6.968;2022-07-23T14:12:07;0.28;;;0.25;;
22287;SDS011;11312;51.464;6.968;2022-07-23T14:14:34;1.65;;;0.63;;
22287;SDS011;11312;51.464;6.968;2022-07-23T14:16:59;0.32;;;0.22;;
22287;SDS011;11312;51.464;6.968;2022-07-23T14:19:25;0.55;;;0.10;;
22287;SDS011;11312;51.464;6.968;2022-07-23T14:21:51;1.75;;;0.45;;
22287;SDS011;11312;51.464;6.968;2022-07-23T14:24:16;0.75;;;0.25;;
22287;SDS011;11312;51.464;6.968;2022-07-23T14:26:42;0.63;;;0.25;;
22287;SDS011;11312;51.464;6.968;2022-07-23T14:29:08;0.75;;;0.32;;
22287;SDS011;11312;51.464;6.968;2022-07-23T14:31:34;0.17;;;0.17;;
22287;SDS011;11312;51.464;6.968;2022-07-23T14:34:00;0.10;;;0.10;;
22287;SDS011;11312;51.464;6.968;2022-07-23T14:36:26;0.00;;;0.00;;
22287;SDS011;11312;51.464;6.968;2022-07-23T14:38:52;1.48;;;0.47;;
22287;SDS011;11312;51.464;6.968;2022-07-23T14:41:18;0.20;;;0.20;;
22287;SDS011;11312;51.464;6.968;2022-07-23T14:43:43;1.33;;;0.40;;
22287;SDS011;11312;51.464;6.968;2022-07-23T14:46:10;1.58;;;0.50;;
22287;SDS011;11312;51.464;6.968;2022-07-23T14:48:37;0.70;;;0.35;;
22287;SDS011;11312;51.464;6.968;2022-07-23T14:51:03;1.60;;;0.47;;
22287;SDS011;11312;51.464;6.968;2022-07-23T14:53:29;0.57;;;0.13;;
22287;SDS011;11312;51.464;6.968;2022-07-23T14:55:54;1.52;;;0.52;;
22287;SDS011;11312;51.464;6.968;2022-07-23T14:58:22;0.20;;;0.20;;
22287;SDS011;11312;51.464;6.968;2022-07-23T15:00:48;0.93;;;0.35;;
22287;SDS011;11312;51.464;6.968;2022-07-23T15:03:14;0.65;;;0.40;;
22287;SDS011;11312;51.464;6.968;2022-07-23T15:05:39;0.70;;;0.30;;
22287;SDS011;11312;51.464;6.968;2022-07-23T15:08:05;0.10;;;0.10;;
22287;SDS011;11312;51.464;6.968;2022-07-23T15:10:31;4.22;;;0.93;;
22287;SDS011;11312;51.464;6.968;2022-07-23T15:12:56;0.40;;;0.25;;
22287;SDS011;11312;51.464;6.968;2022-07-23T15:15:22;0.15;;;0.15;;
22287;SDS011;11312;51.464;6.968;2022-07-23T15:17:48;0.13;;;0.13;;
22287;SDS011;11312;51.464;6.968;2022-07-23T15:20:13;1.55;;;0.40;;
22287;SDS011;11312;51.464;6.968;2022-07-23T15:22:39;0.10;;;0.10;;
22287;SDS011;11312;51.464;6.968;2022-07-23T15:25:05;0.43;;;0.30;;
22287;SDS011;11312;51.464;6.968;2022-07-23T15:27:31;1.08;;;0.50;;
22287;SDS011;11312;51.464;6.968;2022-07-23T15:29:57;0.30;;;0.20;;
22287;SDS011;11312;51.464;6.968;2022-07-23T15:32:22;0.47;;;0.25;;
22287;SDS011;11312;51.464;6.968;2022-07-23T15:34:51;0.80;;;0.40;;
22287;SDS011;11312;51.464;6.968;2022-07-23T15:37:17;0.57;;;0.30;;
22287;SDS011;11312;51.464;6.968;2022-07-23T15:39:43;1.05;;;0.50;;
22287;SDS011;11312;51.464;6.968;2022-07-23T15:42:09;1.13;;;0.35;;
22287;SDS011;11312;51.464;6.968;2022-07-23T15:44:35;0.55;;;0.50;;
22287;SDS011;11312;51.464;6.968;2022-07-23T15:47:00;0.63;;;0.28;;